sensor_id;sensor_type;location;lat;lon;timestamp;P1;durP1;ratioP1;P2;durP2;ratioP2
53875;SDS011;39789;53.216;5.624;2023-04-03T00:01:25;9.23;;;3.20;;
53875;SDS011;39789;53.216;5.624;2023-04-03T00:03:51;15.02;;;3.40;;
53875;SDS011;39789;53.216;5.624;2023-04-03T00:06:17;11.57;;;3.33;;
53875;SDS011;39789;53.216;5.624;2023-04-03T00:08:42;10.25;;;3.90;;
53875;SDS011;39789;53.216;5.624;2023-04-03T00:11:08;10.68;;;3.35;;
53875;SDS011;39789;53.216;5.624;2023-04-03T00:13:34;12.05;;;3.25;;
53875;SDS011;39789;53.216;5.624;2023-04-03T00:16:00;12.05;;;3.92;;
53875;SDS011;39789;53.216;5.624;2023-04-03T00:18:28;7.93;;;3.55;;
53875;SDS011;39789;53.216;5.624;2023-04-03T00:20:54;8.00;;;3.72;;
53875;SDS011;39789;53.216;5.624;2023-04-03T00:23:19;3.38;;;2.70;;
53875;SDS011;39789;53.216;5.624;2023-04-03T00:25:45;5.70;;;3.38;;
53875;SDS011;39789;53.216;5.624;2023-04-03T00:28:11;5.50;;;3.55;;
53875;SDS011;39789;53.216;5.624;2023-04-03T00:30:36;5.13;;;3.20;;
53875;SDS011;39789;53.216;5.624;2023-04-03T00:33:02;7.15;;;3.40;;
53875;SDS011;39789;53.216;5.624;2023-04-03T00:35:28;6.00;;;3.42;;
53875;SDS011;39789;53.216;5.624;2023-04-03T00:37:54;6.15;;;3.22;;
53875;SDS011;39789;53.216;5.624;2023-04-03T00:40:21;5.82;;;3.15;;
53875;SDS011;39789;53.216;5.624;2023-04-03T00:42:48;8.32;;;3.33;;
53875;SDS011;39789;53.216;5.624;2023-04-03T00:45:24;7.72;;;3.00;;
53875;SDS011;39789;53.216;5.624;2023-04-03T00:47:55;9.05;;;3.92;;
53875;SDS011;39789;53.216;5.624;2023-04-03T00:50:25;12.30;;;3.83;;
53875;SDS011;39789;53.216;5.624;2023-04-03T00:52:51;7.05;;;3.50;;
53875;SDS011;39789;53.216;5.624;2023-04-03T00:55:17;10.50;;;3.65;;
53875;SDS011;39789;53.216;5.624;2023-04-03T00:57:44;10.27;;;3.75;;
53875;SDS011;39789;53.216;5.624;2023-04-03T01:00:12;10.80;;;3.30;;
53875;SDS011;39789;53.216;5.624;2023-04-03T01:02:41;11.75;;;3.65;;
53875;SDS011;39789;53.216;5.624;2023-04-03T01:05:07;10.88;;;3.63;;
53875;SDS011;39789;53.216;5.624;2023-04-03T01:07:33;8.45;;;3.25;;
53875;SDS011;39789;53.216;5.624;2023-04-03T01:10:01;7.07;;;3.47;;
53875;SDS011;39789;53.216;5.624;2023-04-03T01:12:31;11.60;;;3.22;;
53875;SDS011;39789;53.216;5.624;2023-04-03T01:15:03;9.55;;;3.08;;
53875;SDS011;39789;53.216;5.624;2023-04-03T01:17:34;6.13;;;3.17;;
53875;SDS011;39789;53.216;5.624;2023-04-03T01:25:42;9.70;;;3.22;;
53875;SDS011;39789;53.216;5.624;2023-04-03T01:28:19;9.13;;;3.40;;
53875;SDS011;39789;53.216;5.624;2023-04-03T01:30:49;7.00;;;3.25;;
53875;SDS011;39789;53.216;5.624;2023-04-03T01:33:42;14.18;;;3.90;;
53875;SDS011;39789;53.216;5.624;2023-04-03T01:36:08;10.20;;;2.67;;
53875;SDS011;39789;53.216;5.624;2023-04-03T01:38:37;6.93;;;2.30;;
53875;SDS011;39789;53.216;5.624;2023-04-03T01:41:03;13.00;;;3.13;;
53875;SDS011;39789;53.216;5.624;2023-04-03T01:43:28;7.65;;;2.78;;
53875;SDS011;39789;53.216;5.624;2023-04-03T01:45:54;8.07;;;2.85;;
53875;SDS011;39789;53.216;5.624;2023-04-03T01:48:20;6.32;;;2.63;;
53875;SDS011;39789;53.216;5.624;2023-04-03T01:50:46;5.90;;;2.42;;
53875;SDS011;39789;53.216;5.624;2023-04-03T01:53:12;7.15;;;2.50;;
53875;SDS011;39789;53.216;5.624;2023-04-03T01:55:38;7.15;;;2.63;;
53875;SDS011;39789;53.216;5.624;2023-04-03T01:58:03;10.25;;;2.60;;
53875;SDS011;39789;53.216;5.624;2023-04-03T02:00:29;8.23;;;2.88;;
53875;SDS011;39789;53.216;5.624;2023-04-03T02:02:55;9.80;;;3.25;;
53875;SDS011;39789;53.216;5.624;2023-04-03T02:05:21;6.72;;;2.70;;
53875;SDS011;39789;53.216;5.624;2023-04-03T02:07:47;4.35;;;2.55;;
53875;SDS011;39789;53.216;5.624;2023-04-03T02:10:12;4.25;;;2.40;;
53875;SDS011;39789;53.216;5.624;2023-04-03T02:12:38;7.50;;;2.85;;
53875;SDS011;39789;53.216;5.624;2023-04-03T02:15:04;17.58;;;3.42;;
53875;SDS011;39789;53.216;5.624;2023-04-03T02:17:30;10.45;;;2.70;;
53875;SDS011;39789;53.216;5.624;2023-04-03T02:19:55;8.77;;;2.70;;
53875;SDS011;39789;53.216;5.624;2023-04-03T02:22:21;10.95;;;2.90;;
53875;SDS011;39789;53.216;5.624;2023-04-03T02:24:47;10.27;;;3.17;;
53875;SDS011;39789;53.216;5.624;2023-04-03T02:27:12;8.65;;;3.15;;
53875;SDS011;39789;53.216;5.624;2023-04-03T02:29:38;10.38;;;3.17;;
53875;SDS011;39789;53.216;5.624;2023-04-03T02:32:04;22.42;;;3.67;;
53875;SDS011;39789;53.216;5.624;2023-04-03T02:34:30;13.93;;;2.85;;
53875;SDS011;39789;53.216;5.624;2023-04-03T02:36:55;16.52;;;2.90;;
53875;SDS011;39789;53.216;5.624;2023-04-03T02:39:21;7.30;;;2.88;;
53875;SDS011;39789;53.216;5.624;2023-04-03T02:41:47;12.57;;;2.90;;
53875;SDS011;39789;53.216;5.624;2023-04-03T02:44:12;2.78;;;2.47;;
53875;SDS011;39789;53.216;5.624;2023-04-03T02:46:38;5.53;;;2.70;;
53875;SDS011;39789;53.216;5.624;2023-04-03T02:49:03;5.60;;;2.92;;
53875;SDS011;39789;53.216;5.624;2023-04-03T02:51:29;5.10;;;3.50;;
53875;SDS011;39789;53.216;5.624;2023-04-03T02:53:55;6.70;;;2.40;;
53875;SDS011;39789;53.216;5.624;2023-04-03T02:56:21;10.35;;;3.20;;
53875;SDS011;39789;53.216;5.624;2023-04-03T02:58:46;4.60;;;2.25;;
53875;SDS011;39789;53.216;5.624;2023-04-03T03:01:12;9.45;;;2.97;;
53875;SDS011;39789;53.216;5.624;2023-04-03T03:03:38;10.70;;;3.08;;
53875;SDS011;39789;53.216;5.624;2023-04-03T03:06:04;8.30;;;2.83;;
53875;SDS011;39789;53.216;5.624;2023-04-03T03:08:34;6.68;;;2.63;;
53875;SDS011;39789;53.216;5.624;2023-04-03T03:11:01;12.95;;;3.35;;
53875;SDS011;39789;53.216;5.624;2023-04-03T03:13:27;9.68;;;2.90;;
53875;SDS011;39789;53.216;5.624;2023-04-03T03:15:53;13.48;;;3.15;;
53875;SDS011;39789;53.216;5.624;2023-04-03T03:18:18;9.60;;;2.97;;
53875;SDS011;39789;53.216;5.624;2023-04-03T03:20:44;5.60;;;2.92;;
53875;SDS011;39789;53.216;5.624;2023-04-03T03:23:10;5.63;;;2.75;;
53875;SDS011;39789;53.216;5.624;2023-04-03T03:25:37;8.27;;;2.80;;
53875;SDS011;39789;53.216;5.624;2023-04-03T03:28:04;6.25;;;3.08;;
53875;SDS011;39789;53.216;5.624;2023-04-03T03:30:29;10.80;;;2.88;;
53875;SDS011;39789;53.216;5.624;2023-04-03T03:32:55;9.63;;;2.85;;
53875;SDS011;39789;53.216;5.624;2023-04-03T03:35:20;8.13;;;2.90;;
53875;SDS011;39789;53.216;5.624;2023-04-03T03:37:46;5.07;;;2.92;;
53875;SDS011;39789;53.216;5.624;2023-04-03T03:40:12;6.50;;;2.80;;
53875;SDS011;39789;53.216;5.624;2023-04-03T03:42:38;6.70;;;2.83;;
53875;SDS011;39789;53.216;5.624;2023-04-03T03:45:04;7.47;;;2.92;;
53875;SDS011;39789;53.216;5.624;2023-04-03T03:47:30;4.85;;;3.00;;
53875;SDS011;39789;53.216;5.624;2023-04-03T03:49:56;12.25;;;2.95;;
53875;SDS011;39789;53.216;5.624;2023-04-03T03:52:21;5.95;;;3.03;;
53875;SDS011;39789;53.216;5.624;2023-04-03T03:54:47;4.55;;;3.00;;
53875;SDS011;39789;53.216;5.624;2023-04-03T03:57:13;6.50;;;2.80;;
53875;SDS011;39789;53.216;5.624;2023-04-03T03:59:38;10.60;;;3.47;;
53875;SDS011;39789;53.216;5.624;2023-04-03T04:02:06;6.95;;;3.03;;
53875;SDS011;39789;53.216;5.624;2023-04-03T04:04:32;11.57;;;3.47;;
53875;SDS011;39789;53.216;5.624;2023-04-03T04:06:58;12.75;;;3.33;;
53875;SDS011;39789;53.216;5.624;2023-04-03T04:09:25;8.00;;;3.00;;
53875;SDS011;39789;53.216;5.624;2023-04-03T04:11:52;8.10;;;3.20;;
53875;SDS011;39789;53.216;5.624;2023-04-03T04:14:18;7.80;;;3.08;;
53875;SDS011;39789;53.216;5.624;2023-04-03T04:16:45;5.53;;;2.88;;
53875;SDS011;39789;53.216;5.624;2023-04-03T04:19:12;6.63;;;3.40;;
53875;SDS011;39789;53.216;5.624;2023-04-03T04:21:37;12.32;;;3.83;;
53875;SDS011;39789;53.216;5.624;2023-04-03T04:24:03;7.60;;;3.38;;
53875;SDS011;39789;53.216;5.624;2023-04-03T04:26:29;10.38;;;3.28;;
53875;SDS011;39789;53.216;5.624;2023-04-03T04:28:54;13.50;;;4.63;;
53875;SDS011;39789;53.216;5.624;2023-04-03T04:31:20;10.45;;;3.80;;
53875;SDS011;39789;53.216;5.624;2023-04-03T04:33:45;13.82;;;4.22;;
53875;SDS011;39789;53.216;5.624;2023-04-03T04:36:11;8.07;;;3.30;;
53875;SDS011;39789;53.216;5.624;2023-04-03T04:38:37;12.40;;;3.65;;
53875;SDS011;39789;53.216;5.624;2023-04-03T04:41:03;7.95;;;3.67;;
53875;SDS011;39789;53.216;5.624;2023-04-03T04:43:29;8.32;;;3.20;;
53875;SDS011;39789;53.216;5.624;2023-04-03T04:46:05;12.60;;;3.42;;
53875;SDS011;39789;53.216;5.624;2023-04-03T04:48:31;7.35;;;3.53;;
53875;SDS011;39789;53.216;5.624;2023-04-03T04:50:57;6.32;;;2.97;;
53875;SDS011;39789;53.216;5.624;2023-04-03T04:53:23;6.10;;;3.20;;
53875;SDS011;39789;53.216;5.624;2023-04-03T04:55:48;5.65;;;3.40;;
53875;SDS011;39789;53.216;5.624;2023-04-03T04:58:14;15.25;;;3.60;;
53875;SDS011;39789;53.216;5.624;2023-04-03T05:00:40;10.30;;;3.65;;
53875;SDS011;39789;53.216;5.624;2023-04-03T05:03:06;12.48;;;4.13;;
53875;SDS011;39789;53.216;5.624;2023-04-03T05:05:32;10.75;;;3.63;;
53875;SDS011;39789;53.216;5.624;2023-04-03T05:07:57;11.10;;;4.38;;
53875;SDS011;39789;53.216;5.624;2023-04-03T05:10:23;13.70;;;3.95;;
53875;SDS011;39789;53.216;5.624;2023-04-03T05:12:48;6.93;;;3.65;;
53875;SDS011;39789;53.216;5.624;2023-04-03T05:15:14;9.15;;;3.80;;
53875;SDS011;39789;53.216;5.624;2023-04-03T05:17:40;9.45;;;4.28;;
53875;SDS011;39789;53.216;5.624;2023-04-03T05:20:05;10.38;;;3.72;;
53875;SDS011;39789;53.216;5.624;2023-04-03T05:22:31;5.80;;;3.28;;
53875;SDS011;39789;53.216;5.624;2023-04-03T05:24:57;10.48;;;4.32;;
53875;SDS011;39789;53.216;5.624;2023-04-03T05:27:23;8.85;;;3.30;;
53875;SDS011;39789;53.216;5.624;2023-04-03T05:29:49;10.27;;;4.32;;
53875;SDS011;39789;53.216;5.624;2023-04-03T05:32:15;10.77;;;3.60;;
53875;SDS011;39789;53.216;5.624;2023-04-03T05:34:41;10.02;;;3.88;;
53875;SDS011;39789;53.216;5.624;2023-04-03T05:37:07;6.68;;;3.45;;
53875;SDS011;39789;53.216;5.624;2023-04-03T05:39:32;8.88;;;3.80;;
53875;SDS011;39789;53.216;5.624;2023-04-03T05:41:58;8.20;;;3.28;;
53875;SDS011;39789;53.216;5.624;2023-04-03T05:44:24;5.18;;;3.30;;
53875;SDS011;39789;53.216;5.624;2023-04-03T05:46:50;8.77;;;4.03;;
53875;SDS011;39789;53.216;5.624;2023-04-03T05:49:15;9.13;;;3.58;;
53875;SDS011;39789;53.216;5.624;2023-04-03T05:51:41;6.28;;;3.85;;
53875;SDS011;39789;53.216;5.624;2023-04-03T05:54:28;7.68;;;4.20;;
53875;SDS011;39789;53.216;5.624;2023-04-03T05:56:54;7.72;;;3.40;;
53875;SDS011;39789;53.216;5.624;2023-04-03T05:59:20;8.02;;;3.50;;
53875;SDS011;39789;53.216;5.624;2023-04-03T06:01:46;9.18;;;3.92;;
53875;SDS011;39789;53.216;5.624;2023-04-03T06:04:12;8.15;;;3.75;;
53875;SDS011;39789;53.216;5.624;2023-04-03T06:06:42;8.60;;;4.18;;
53875;SDS011;39789;53.216;5.624;2023-04-03T06:09:22;8.38;;;3.55;;
53875;SDS011;39789;53.216;5.624;2023-04-03T06:11:51;9.60;;;4.13;;
53875;SDS011;39789;53.216;5.624;2023-04-03T06:14:17;9.25;;;3.78;;
53875;SDS011;39789;53.216;5.624;2023-04-03T06:16:43;11.15;;;3.75;;
53875;SDS011;39789;53.216;5.624;2023-04-03T06:19:10;12.77;;;4.40;;
53875;SDS011;39789;53.216;5.624;2023-04-03T06:21:36;12.73;;;3.63;;
53875;SDS011;39789;53.216;5.624;2023-04-03T06:24:03;6.88;;;3.50;;
53875;SDS011;39789;53.216;5.624;2023-04-03T06:26:30;7.72;;;3.60;;
53875;SDS011;39789;53.216;5.624;2023-04-03T06:28:55;8.75;;;3.72;;
53875;SDS011;39789;53.216;5.624;2023-04-03T06:31:21;10.13;;;3.75;;
53875;SDS011;39789;53.216;5.624;2023-04-03T06:33:47;14.80;;;4.10;;
53875;SDS011;39789;53.216;5.624;2023-04-03T06:36:12;8.88;;;3.83;;
53875;SDS011;39789;53.216;5.624;2023-04-03T06:38:38;7.95;;;3.50;;
53875;SDS011;39789;53.216;5.624;2023-04-03T06:41:04;8.43;;;4.32;;
53875;SDS011;39789;53.216;5.624;2023-04-03T06:43:29;8.30;;;3.75;;
53875;SDS011;39789;53.216;5.624;2023-04-03T06:45:58;7.43;;;3.70;;
53875;SDS011;39789;53.216;5.624;2023-04-03T06:48:24;11.30;;;3.88;;
53875;SDS011;39789;53.216;5.624;2023-04-03T06:50:49;9.02;;;3.53;;
53875;SDS011;39789;53.216;5.624;2023-04-03T06:53:15;8.88;;;3.45;;
53875;SDS011;39789;53.216;5.624;2023-04-03T06:55:41;8.55;;;3.97;;
53875;SDS011;39789;53.216;5.624;2023-04-03T06:58:07;9.65;;;3.88;;
53875;SDS011;39789;53.216;5.624;2023-04-03T07:00:32;8.07;;;3.85;;
53875;SDS011;39789;53.216;5.624;2023-04-03T07:02:58;9.30;;;3.55;;
53875;SDS011;39789;53.216;5.624;2023-04-03T07:05:24;9.93;;;3.63;;
53875;SDS011;39789;53.216;5.624;2023-04-03T07:07:51;7.70;;;3.75;;
53875;SDS011;39789;53.216;5.624;2023-04-03T07:10:17;6.20;;;3.50;;
53875;SDS011;39789;53.216;5.624;2023-04-03T07:12:43;8.93;;;4.03;;
53875;SDS011;39789;53.216;5.624;2023-04-03T07:15:08;7.15;;;3.13;;
53875;SDS011;39789;53.216;5.624;2023-04-03T07:17:35;9.32;;;3.90;;
53875;SDS011;39789;53.216;5.624;2023-04-03T07:20:02;6.72;;;3.10;;
53875;SDS011;39789;53.216;5.624;2023-04-03T07:22:29;6.68;;;3.33;;
53875;SDS011;39789;53.216;5.624;2023-04-03T07:24:55;6.47;;;3.67;;
53875;SDS011;39789;53.216;5.624;2023-04-03T07:27:20;7.93;;;3.33;;
53875;SDS011;39789;53.216;5.624;2023-04-03T07:29:46;6.20;;;2.75;;
53875;SDS011;39789;53.216;5.624;2023-04-03T07:32:13;5.97;;;3.00;;
53875;SDS011;39789;53.216;5.624;2023-04-03T07:34:39;5.15;;;2.90;;
53875;SDS011;39789;53.216;5.624;2023-04-03T07:37:05;4.78;;;2.60;;
53875;SDS011;39789;53.216;5.624;2023-04-03T07:39:31;5.47;;;2.90;;
53875;SDS011;39789;53.216;5.624;2023-04-03T07:41:57;6.57;;;2.42;;
53875;SDS011;39789;53.216;5.624;2023-04-03T07:44:22;6.38;;;3.10;;
53875;SDS011;39789;53.216;5.624;2023-04-03T07:46:48;7.72;;;2.60;;
53875;SDS011;39789;53.216;5.624;2023-04-03T07:49:15;5.93;;;3.38;;
53875;SDS011;39789;53.216;5.624;2023-04-03T07:51:43;7.93;;;2.55;;
53875;SDS011;39789;53.216;5.624;2023-04-03T07:54:09;4.90;;;2.58;;
53875;SDS011;39789;53.216;5.624;2023-04-03T07:56:34;5.63;;;2.72;;
53875;SDS011;39789;53.216;5.624;2023-04-03T07:59:00;6.25;;;2.38;;
53875;SDS011;39789;53.216;5.624;2023-04-03T08:01:26;6.43;;;2.42;;
53875;SDS011;39789;53.216;5.624;2023-04-03T08:03:51;4.85;;;2.28;;
53875;SDS011;39789;53.216;5.624;2023-04-03T08:06:17;6.93;;;3.13;;
53875;SDS011;39789;53.216;5.624;2023-04-03T08:08:43;6.43;;;2.90;;
53875;SDS011;39789;53.216;5.624;2023-04-03T08:11:09;5.30;;;2.53;;
53875;SDS011;39789;53.216;5.624;2023-04-03T08:13:35;5.50;;;2.67;;
53875;SDS011;39789;53.216;5.624;2023-04-03T08:16:16;5.05;;;2.17;;
53875;SDS011;39789;53.216;5.624;2023-04-03T08:18:43;4.65;;;2.47;;
53875;SDS011;39789;53.216;5.624;2023-04-03T08:21:09;7.35;;;2.90;;
53875;SDS011;39789;53.216;5.624;2023-04-03T08:23:36;3.72;;;2.47;;
53875;SDS011;39789;53.216;5.624;2023-04-03T08:26:13;4.47;;;2.50;;
53875;SDS011;39789;53.216;5.624;2023-04-03T08:28:40;4.38;;;2.00;;
53875;SDS011;39789;53.216;5.624;2023-04-03T08:31:08;7.50;;;3.20;;
53875;SDS011;39789;53.216;5.624;2023-04-03T08:33:36;5.82;;;2.92;;
53875;SDS011;39789;53.216;5.624;2023-04-03T08:36:04;5.70;;;2.45;;
53875;SDS011;39789;53.216;5.624;2023-04-03T08:38:30;5.72;;;2.67;;
53875;SDS011;39789;53.216;5.624;2023-04-03T08:41:01;4.93;;;2.40;;
53875;SDS011;39789;53.216;5.624;2023-04-03T08:43:37;5.55;;;2.80;;
53875;SDS011;39789;53.216;5.624;2023-04-03T08:46:32;4.65;;;2.45;;
53875;SDS011;39789;53.216;5.624;2023-04-03T08:49:03;4.35;;;2.53;;
53875;SDS011;39789;53.216;5.624;2023-04-03T08:51:32;5.13;;;2.67;;
53875;SDS011;39789;53.216;5.624;2023-04-03T08:54:00;6.22;;;2.10;;
53875;SDS011;39789;53.216;5.624;2023-04-03T08:59:06;4.43;;;2.03;;
53875;SDS011;39789;53.216;5.624;2023-04-03T09:01:39;2.30;;;1.67;;
53875;SDS011;39789;53.216;5.624;2023-04-03T09:04:12;5.03;;;2.45;;
53875;SDS011;39789;53.216;5.624;2023-04-03T09:06:39;6.35;;;2.03;;
53875;SDS011;39789;53.216;5.624;2023-04-03T09:14:53;3.00;;;1.80;;
53875;SDS011;39789;53.216;5.624;2023-04-03T09:17:41;3.10;;;1.88;;
53875;SDS011;39789;53.216;5.624;2023-04-03T09:20:28;3.45;;;1.70;;
53875;SDS011;39789;53.216;5.624;2023-04-03T09:22:57;3.35;;;1.70;;
53875;SDS011;39789;53.216;5.624;2023-04-03T09:25:26;2.28;;;1.60;;
53875;SDS011;39789;53.216;5.624;2023-04-03T09:28:02;4.90;;;2.10;;
53875;SDS011;39789;53.216;5.624;2023-04-03T09:30:29;3.45;;;1.50;;
53875;SDS011;39789;53.216;5.624;2023-04-03T09:32:56;3.22;;;1.60;;
53875;SDS011;39789;53.216;5.624;2023-04-03T09:35:23;3.08;;;1.58;;
53875;SDS011;39789;53.216;5.624;2023-04-03T09:37:54;4.03;;;1.70;;
53875;SDS011;39789;53.216;5.624;2023-04-03T09:42:50;5.00;;;1.60;;
53875;SDS011;39789;53.216;5.624;2023-04-03T09:45:23;3.13;;;1.27;;
53875;SDS011;39789;53.216;5.624;2023-04-03T09:48:07;1.65;;;1.30;;
53875;SDS011;39789;53.216;5.624;2023-04-03T09:55:55;2.95;;;1.42;;
53875;SDS011;39789;53.216;5.624;2023-04-03T09:58:27;2.13;;;1.30;;
53875;SDS011;39789;53.216;5.624;2023-04-03T10:00:59;1.08;;;1.05;;
53875;SDS011;39789;53.216;5.624;2023-04-03T10:03:30;1.23;;;1.00;;
53875;SDS011;39789;53.216;5.624;2023-04-03T10:05:59;2.72;;;1.35;;
53875;SDS011;39789;53.216;5.624;2023-04-03T10:08:30;2.25;;;1.65;;
53875;SDS011;39789;53.216;5.624;2023-04-03T10:13:51;4.30;;;1.45;;
53875;SDS011;39789;53.216;5.624;2023-04-03T10:17:02;3.17;;;1.10;;
53875;SDS011;39789;53.216;5.624;2023-04-03T10:19:19;2.50;;;1.30;;
53875;SDS011;39789;53.216;5.624;2023-04-03T10:24:54;1.90;;;1.30;;
53875;SDS011;39789;53.216;5.624;2023-04-03T10:27:40;1.48;;;1.38;;
53875;SDS011;39789;53.216;5.624;2023-04-03T10:33:01;1.95;;;1.10;;
53875;SDS011;39789;53.216;5.624;2023-04-03T10:35:39;2.28;;;1.30;;
53875;SDS011;39789;53.216;5.624;2023-04-03T10:43:50;1.90;;;1.10;;
53875;SDS011;39789;53.216;5.624;2023-04-03T10:46:38;3.78;;;1.50;;
53875;SDS011;39789;53.216;5.624;2023-04-03T10:51:45;3.08;;;1.30;;
53875;SDS011;39789;53.216;5.624;2023-04-03T10:54:25;1.92;;;1.33;;
53875;SDS011;39789;53.216;5.624;2023-04-03T10:56:57;1.27;;;1.02;;
53875;SDS011;39789;53.216;5.624;2023-04-03T10:59:28;3.13;;;1.20;;
53875;SDS011;39789;53.216;5.624;2023-04-03T11:02:23;2.30;;;1.23;;
53875;SDS011;39789;53.216;5.624;2023-04-03T11:04:51;1.42;;;1.13;;
53875;SDS011;39789;53.216;5.624;2023-04-03T11:07:26;1.48;;;1.00;;
53875;SDS011;39789;53.216;5.624;2023-04-03T11:09:58;2.47;;;1.05;;
53875;SDS011;39789;53.216;5.624;2023-04-03T11:15:00;3.05;;;1.30;;
53875;SDS011;39789;53.216;5.624;2023-04-03T11:23:00;2.50;;;1.00;;
53875;SDS011;39789;53.216;5.624;2023-04-03T11:25:45;1.30;;;1.20;;
53875;SDS011;39789;53.216;5.624;2023-04-03T11:28:17;1.83;;;1.00;;
53875;SDS011;39789;53.216;5.624;2023-04-03T11:33:43;1.90;;;1.33;;
53875;SDS011;39789;53.216;5.624;2023-04-03T11:36:32;1.35;;;1.10;;
53875;SDS011;39789;53.216;5.624;2023-04-03T11:39:10;2.05;;;1.30;;
53875;SDS011;39789;53.216;5.624;2023-04-03T11:41:47;1.75;;;1.20;;
53875;SDS011;39789;53.216;5.624;2023-04-03T11:44:32;4.10;;;1.27;;
53875;SDS011;39789;53.216;5.624;2023-04-03T11:47:03;1.45;;;1.13;;
53875;SDS011;39789;53.216;5.624;2023-04-03T11:55:36;1.25;;;1.05;;
53875;SDS011;39789;53.216;5.624;2023-04-03T12:05:56;3.22;;;1.55;;
53875;SDS011;39789;53.216;5.624;2023-04-03T12:13:39;3.92;;;1.50;;
53875;SDS011;39789;53.216;5.624;2023-04-03T12:21:21;1.52;;;1.38;;
53875;SDS011;39789;53.216;5.624;2023-04-03T12:24:01;1.17;;;1.00;;
53875;SDS011;39789;53.216;5.624;2023-04-03T12:26:43;3.97;;;1.17;;
53875;SDS011;39789;53.216;5.624;2023-04-03T12:34:43;2.28;;;1.35;;
53875;SDS011;39789;53.216;5.624;2023-04-03T12:37:19;1.92;;;1.20;;
53875;SDS011;39789;53.216;5.624;2023-04-03T12:45:24;2.13;;;1.08;;
53875;SDS011;39789;53.216;5.624;2023-04-03T12:47:52;2.35;;;1.48;;
53875;SDS011;39789;53.216;5.624;2023-04-03T12:50:21;2.80;;;1.50;;
53875;SDS011;39789;53.216;5.624;2023-04-03T12:52:54;1.73;;;1.30;;
53875;SDS011;39789;53.216;5.624;2023-04-03T12:55:26;4.47;;;1.83;;
53875;SDS011;39789;53.216;5.624;2023-04-03T12:57:52;2.28;;;1.38;;
53875;SDS011;39789;53.216;5.624;2023-04-03T13:00:32;2.58;;;1.40;;
53875;SDS011;39789;53.216;5.624;2023-04-03T13:03:00;3.03;;;1.30;;
53875;SDS011;39789;53.216;5.624;2023-04-03T13:05:27;2.13;;;1.25;;
53875;SDS011;39789;53.216;5.624;2023-04-03T13:07:59;5.45;;;2.10;;
53875;SDS011;39789;53.216;5.624;2023-04-03T13:10:26;3.25;;;1.52;;
53875;SDS011;39789;53.216;5.624;2023-04-03T13:12:53;3.90;;;1.50;;
53875;SDS011;39789;53.216;5.624;2023-04-03T13:17:47;3.17;;;1.38;;
53875;SDS011;39789;53.216;5.624;2023-04-03T13:22:47;5.18;;;1.65;;
53875;SDS011;39789;53.216;5.624;2023-04-03T13:25:17;2.05;;;1.70;;
53875;SDS011;39789;53.216;5.624;2023-04-03T13:27:46;2.60;;;1.40;;
53875;SDS011;39789;53.216;5.624;2023-04-03T13:30:24;2.90;;;1.60;;
53875;SDS011;39789;53.216;5.624;2023-04-03T13:32:53;2.13;;;1.60;;
53875;SDS011;39789;53.216;5.624;2023-04-03T13:35:30;1.80;;;1.40;;
53875;SDS011;39789;53.216;5.624;2023-04-03T13:37:59;5.90;;;1.92;;
53875;SDS011;39789;53.216;5.624;2023-04-03T13:40:28;2.80;;;1.60;;
53875;SDS011;39789;53.216;5.624;2023-04-03T13:43:01;2.67;;;1.60;;
53875;SDS011;39789;53.216;5.624;2023-04-03T13:45:32;4.13;;;1.70;;
53875;SDS011;39789;53.216;5.624;2023-04-03T13:48:16;4.30;;;1.80;;
53875;SDS011;39789;53.216;5.624;2023-04-03T13:50:51;3.20;;;1.70;;
53875;SDS011;39789;53.216;5.624;2023-04-03T13:53:46;3.58;;;1.50;;
53875;SDS011;39789;53.216;5.624;2023-04-03T14:01:43;4.22;;;1.58;;
53875;SDS011;39789;53.216;5.624;2023-04-03T14:07:01;2.65;;;1.52;;
53875;SDS011;39789;53.216;5.624;2023-04-03T14:09:27;5.47;;;2.03;;
53875;SDS011;39789;53.216;5.624;2023-04-03T14:11:54;3.10;;;1.80;;
53875;SDS011;39789;53.216;5.624;2023-04-03T14:14:26;4.15;;;1.75;;
53875;SDS011;39789;53.216;5.624;2023-04-03T14:16:55;2.40;;;1.63;;
53875;SDS011;39789;53.216;5.624;2023-04-03T14:21:55;4.68;;;1.90;;
53875;SDS011;39789;53.216;5.624;2023-04-03T14:24:22;5.15;;;1.65;;
53875;SDS011;39789;53.216;5.624;2023-04-03T14:26:49;3.88;;;1.63;;
53875;SDS011;39789;53.216;5.624;2023-04-03T14:29:16;3.67;;;1.67;;
53875;SDS011;39789;53.216;5.624;2023-04-03T14:31:42;2.30;;;1.30;;
53875;SDS011;39789;53.216;5.624;2023-04-03T14:34:13;2.45;;;1.40;;
53875;SDS011;39789;53.216;5.624;2023-04-03T14:36:40;2.95;;;1.55;;
53875;SDS011;39789;53.216;5.624;2023-04-03T14:39:07;5.32;;;1.67;;
53875;SDS011;39789;53.216;5.624;2023-04-03T14:41:36;2.53;;;1.73;;
53875;SDS011;39789;53.216;5.624;2023-04-03T14:44:02;4.00;;;1.70;;
53875;SDS011;39789;53.216;5.624;2023-04-03T14:46:29;3.90;;;1.50;;
53875;SDS011;39789;53.216;5.624;2023-04-03T14:49:01;5.25;;;1.67;;
53875;SDS011;39789;53.216;5.624;2023-04-03T14:51:27;3.55;;;1.75;;
53875;SDS011;39789;53.216;5.624;2023-04-03T14:53:53;6.07;;;1.70;;
53875;SDS011;39789;53.216;5.624;2023-04-03T14:56:28;5.55;;;1.92;;
53875;SDS011;39789;53.216;5.624;2023-04-03T14:58:58;5.30;;;1.80;;
53875;SDS011;39789;53.216;5.624;2023-04-03T15:01:26;3.47;;;1.90;;
53875;SDS011;39789;53.216;5.624;2023-04-03T15:03:52;3.38;;;1.70;;
53875;SDS011;39789;53.216;5.624;2023-04-03T15:06:18;2.42;;;1.75;;
53875;SDS011;39789;53.216;5.624;2023-04-03T15:08:45;3.58;;;1.80;;
53875;SDS011;39789;53.216;5.624;2023-04-03T15:11:12;6.55;;;2.03;;
53875;SDS011;39789;53.216;5.624;2023-04-03T15:13:38;4.15;;;1.75;;
53875;SDS011;39789;53.216;5.624;2023-04-03T15:16:05;5.18;;;1.90;;
53875;SDS011;39789;53.216;5.624;2023-04-03T15:18:37;5.18;;;1.95;;
53875;SDS011;39789;53.216;5.624;2023-04-03T15:21:04;3.85;;;1.60;;
53875;SDS011;39789;53.216;5.624;2023-04-03T15:23:30;3.30;;;1.92;;
53875;SDS011;39789;53.216;5.624;2023-04-03T15:25:55;3.17;;;2.00;;
53875;SDS011;39789;53.216;5.624;2023-04-03T15:28:23;7.38;;;2.30;;
53875;SDS011;39789;53.216;5.624;2023-04-03T15:30:53;4.68;;;1.98;;
53875;SDS011;39789;53.216;5.624;2023-04-03T15:33:18;6.75;;;2.10;;
53875;SDS011;39789;53.216;5.624;2023-04-03T15:35:44;5.93;;;2.15;;
53875;SDS011;39789;53.216;5.624;2023-04-03T15:38:10;3.58;;;2.28;;
53875;SDS011;39789;53.216;5.624;2023-04-03T15:40:36;9.30;;;3.30;;
53875;SDS011;39789;53.216;5.624;2023-04-03T15:43:02;4.30;;;2.50;;
53875;SDS011;39789;53.216;5.624;2023-04-03T15:45:28;4.07;;;2.50;;
53875;SDS011;39789;53.216;5.624;2023-04-03T15:47:55;4.78;;;2.30;;
53875;SDS011;39789;53.216;5.624;2023-04-03T15:50:21;7.38;;;2.10;;
53875;SDS011;39789;53.216;5.624;2023-04-03T15:52:49;4.47;;;2.20;;
53875;SDS011;39789;53.216;5.624;2023-04-03T15:55:20;3.45;;;1.98;;
53875;SDS011;39789;53.216;5.624;2023-04-03T15:57:52;4.50;;;2.03;;
53875;SDS011;39789;53.216;5.624;2023-04-03T16:00:18;7.80;;;2.15;;
53875;SDS011;39789;53.216;5.624;2023-04-03T16:02:46;5.57;;;2.03;;
53875;SDS011;39789;53.216;5.624;2023-04-03T16:05:13;3.58;;;1.75;;
53875;SDS011;39789;53.216;5.624;2023-04-03T16:07:42;3.15;;;1.83;;
53875;SDS011;39789;53.216;5.624;2023-04-03T16:10:09;5.97;;;1.75;;
53875;SDS011;39789;53.216;5.624;2023-04-03T16:12:36;4.28;;;1.80;;
53875;SDS011;39789;53.216;5.624;2023-04-03T16:15:01;2.35;;;1.60;;
53875;SDS011;39789;53.216;5.624;2023-04-03T16:17:28;4.70;;;1.85;;
53875;SDS011;39789;53.216;5.624;2023-04-03T16:19:55;3.88;;;1.40;;
53875;SDS011;39789;53.216;5.624;2023-04-03T16:22:21;4.75;;;1.55;;
53875;SDS011;39789;53.216;5.624;2023-04-03T16:24:51;3.92;;;1.30;;
53875;SDS011;39789;53.216;5.624;2023-04-03T16:27:16;4.88;;;1.38;;
53875;SDS011;39789;53.216;5.624;2023-04-03T16:29:42;4.00;;;1.50;;
53875;SDS011;39789;53.216;5.624;2023-04-03T16:32:08;2.47;;;1.23;;
53875;SDS011;39789;53.216;5.624;2023-04-03T16:34:33;3.78;;;1.27;;